sensor_id;sensor_type;location;lat;lon;timestamp;P1;durP1;ratioP1;P2;durP2;ratioP2
24277;SDS011;12394;42.692;23.314;2023-07-24T00:00:13;10.27;;;9.13;;
24277;SDS011;12394;42.692;23.314;2023-07-24T00:02:38;13.83;;;9.37;;
24277;SDS011;12394;42.692;23.314;2023-07-24T00:05:04;15.90;;;8.77;;
24277;SDS011;12394;42.692;23.314;2023-07-24T00:07:29;14.00;;;8.77;;
24277;SDS011;12394;42.692;23.314;2023-07-24T00:09:55;10.83;;;8.70;;
24277;SDS011;12394;42.692;23.314;2023-07-24T00:12:20;14.33;;;9.37;;
24277;SDS011;12394;42.692;23.314;2023-07-24T00:14:46;11.20;;;8.97;;
24277;SDS011;12394;42.692;23.314;2023-07-24T00:17:13;11.93;;;9.43;;
24277;SDS011;12394;42.692;23.314;2023-07-24T00:19:38;13.97;;;9.23;;
24277;SDS011;12394;42.692;23.314;2023-07-24T00:22:04;11.20;;;9.13;;
24277;SDS011;12394;42.692;23.314;2023-07-24T00:24:29;14.03;;;9.37;;
24277;SDS011;12394;42.692;23.314;2023-07-24T00:26:56;14.00;;;9.10;;
24277;SDS011;12394;42.692;23.314;2023-07-24T00:29:21;14.13;;;9.03;;
24277;SDS011;12394;42.692;23.314;2023-07-24T00:31:47;12.60;;;8.50;;
24277;SDS011;12394;42.692;23.314;2023-07-24T00:34:13;12.23;;;9.10;;
24277;SDS011;12394;42.692;23.314;2023-07-24T00:36:38;10.30;;;8.40;;
24277;SDS011;12394;42.692;23.314;2023-07-24T00:39:03;10.13;;;9.07;;
24277;SDS011;12394;42.692;23.314;2023-07-24T00:41:29;11.03;;;8.60;;
24277;SDS011;12394;42.692;23.314;2023-07-24T00:43:54;15.27;;;8.43;;
24277;SDS011;12394;42.692;23.314;2023-07-24T00:46:20;12.80;;;9.03;;
24277;SDS011;12394;42.692;23.314;2023-07-24T00:48:45;12.10;;;9.37;;
24277;SDS011;12394;42.692;23.314;2023-07-24T00:51:11;10.33;;;8.90;;
24277;SDS011;12394;42.692;23.314;2023-07-24T00:53:36;13.13;;;9.23;;
24277;SDS011;12394;42.692;23.314;2023-07-24T00:56:02;14.50;;;9.73;;
24277;SDS011;12394;42.692;23.314;2023-07-24T00:58:28;13.03;;;8.97;;
24277;SDS011;12394;42.692;23.314;2023-07-24T01:00:53;10.13;;;9.07;;
24277;SDS011;12394;42.692;23.314;2023-07-24T01:03:19;15.37;;;9.20;;
24277;SDS011;12394;42.692;23.314;2023-07-24T01:05:45;12.53;;;9.40;;
24277;SDS011;12394;42.692;23.314;2023-07-24T01:08:11;18.97;;;9.53;;
24277;SDS011;12394;42.692;23.314;2023-07-24T01:10:36;13.57;;;9.37;;
24277;SDS011;12394;42.692;23.314;2023-07-24T01:13:02;12.40;;;8.80;;
24277;SDS011;12394;42.692;23.314;2023-07-24T01:15:48;11.57;;;9.53;;
24277;SDS011;12394;42.692;23.314;2023-07-24T01:18:19;13.73;;;9.00;;
24277;SDS011;12394;42.692;23.314;2023-07-24T01:20:53;15.43;;;9.00;;
24277;SDS011;12394;42.692;23.314;2023-07-24T01:23:22;11.47;;;8.67;;
24277;SDS011;12394;42.692;23.314;2023-07-24T01:25:58;10.80;;;8.53;;
24277;SDS011;12394;42.692;23.314;2023-07-24T01:28:26;13.63;;;9.17;;
24277;SDS011;12394;42.692;23.314;2023-07-24T01:30:52;11.60;;;8.70;;
24277;SDS011;12394;42.692;23.314;2023-07-24T01:33:17;13.17;;;9.03;;
24277;SDS011;12394;42.692;23.314;2023-07-24T01:35:44;11.97;;;9.33;;
24277;SDS011;12394;42.692;23.314;2023-07-24T01:38:13;13.57;;;9.27;;
24277;SDS011;12394;42.692;23.314;2023-07-24T01:40:42;12.87;;;9.30;;
24277;SDS011;12394;42.692;23.314;2023-07-24T01:43:08;12.43;;;9.50;;
24277;SDS011;12394;42.692;23.314;2023-07-24T01:45:34;14.27;;;8.83;;
24277;SDS011;12394;42.692;23.314;2023-07-24T01:48:01;14.33;;;8.63;;
24277;SDS011;12394;42.692;23.314;2023-07-24T01:50:28;12.17;;;8.97;;
24277;SDS011;12394;42.692;23.314;2023-07-24T01:52:53;13.53;;;9.53;;
24277;SDS011;12394;42.692;23.314;2023-07-24T01:55:19;12.73;;;9.07;;
24277;SDS011;12394;42.692;23.314;2023-07-24T01:57:44;12.63;;;8.87;;
24277;SDS011;12394;42.692;23.314;2023-07-24T02:00:10;10.93;;;8.63;;
24277;SDS011;12394;42.692;23.314;2023-07-24T02:02:36;10.23;;;8.40;;
24277;SDS011;12394;42.692;23.314;2023-07-24T02:05:01;11.10;;;8.70;;
24277;SDS011;12394;42.692;23.314;2023-07-24T02:07:26;11.10;;;8.13;;
24277;SDS011;12394;42.692;23.314;2023-07-24T02:09:52;12.87;;;8.90;;
24277;SDS011;12394;42.692;23.314;2023-07-24T02:12:17;11.83;;;8.63;;
24277;SDS011;12394;42.692;23.314;2023-07-24T02:14:43;9.53;;;7.87;;
24277;SDS011;12394;42.692;23.314;2023-07-24T02:17:08;15.97;;;8.53;;
24277;SDS011;12394;42.692;23.314;2023-07-24T02:19:33;14.40;;;8.93;;
24277;SDS011;12394;42.692;23.314;2023-07-24T02:21:59;15.60;;;8.80;;
24277;SDS011;12394;42.692;23.314;2023-07-24T02:24:24;11.73;;;8.77;;
24277;SDS011;12394;42.692;23.314;2023-07-24T02:26:49;11.13;;;8.93;;
24277;SDS011;12394;42.692;23.314;2023-07-24T02:29:15;12.93;;;8.70;;
24277;SDS011;12394;42.692;23.314;2023-07-24T02:31:40;11.00;;;8.63;;
24277;SDS011;12394;42.692;23.314;2023-07-24T02:34:06;11.70;;;8.20;;
24277;SDS011;12394;42.692;23.314;2023-07-24T02:36:31;12.50;;;8.80;;
24277;SDS011;12394;42.692;23.314;2023-07-24T02:38:57;10.37;;;8.67;;
24277;SDS011;12394;42.692;23.314;2023-07-24T02:41:22;11.60;;;8.87;;
24277;SDS011;12394;42.692;23.314;2023-07-24T02:43:47;13.67;;;9.50;;
24277;SDS011;12394;42.692;23.314;2023-07-24T02:46:13;10.47;;;8.80;;
24277;SDS011;12394;42.692;23.314;2023-07-24T02:48:38;16.77;;;9.80;;
24277;SDS011;12394;42.692;23.314;2023-07-24T02:51:04;12.27;;;8.60;;
24277;SDS011;12394;42.692;23.314;2023-07-24T02:53:29;10.37;;;8.00;;
24277;SDS011;12394;42.692;23.314;2023-07-24T02:55:55;13.73;;;9.27;;
24277;SDS011;12394;42.692;23.314;2023-07-24T02:58:20;10.20;;;8.90;;
24277;SDS011;12394;42.692;23.314;2023-07-24T03:00:46;12.87;;;8.10;;
24277;SDS011;12394;42.692;23.314;2023-07-24T03:03:11;25.20;;;10.90;;
24277;SDS011;12394;42.692;23.314;2023-07-24T03:05:37;18.13;;;10.03;;
24277;SDS011;12394;42.692;23.314;2023-07-24T03:08:02;16.23;;;9.40;;
24277;SDS011;12394;42.692;23.314;2023-07-24T03:10:28;15.90;;;9.13;;
24277;SDS011;12394;42.692;23.314;2023-07-24T03:12:54;14.57;;;9.87;;
24277;SDS011;12394;42.692;23.314;2023-07-24T03:15:19;17.00;;;8.57;;
24277;SDS011;12394;42.692;23.314;2023-07-24T03:17:44;15.10;;;8.67;;
24277;SDS011;12394;42.692;23.314;2023-07-24T03:20:19;17.00;;;8.73;;
24277;SDS011;12394;42.692;23.314;2023-07-24T03:22:45;18.80;;;12.13;;
24277;SDS011;12394;42.692;23.314;2023-07-24T03:25:11;13.03;;;9.03;;
24277;SDS011;12394;42.692;23.314;2023-07-24T03:27:36;13.90;;;9.37;;
24277;SDS011;12394;42.692;23.314;2023-07-24T03:30:02;12.17;;;9.40;;
24277;SDS011;12394;42.692;23.314;2023-07-24T03:32:28;12.87;;;8.97;;
24277;SDS011;12394;42.692;23.314;2023-07-24T03:34:54;11.13;;;8.80;;
24277;SDS011;12394;42.692;23.314;2023-07-24T03:37:19;12.80;;;9.07;;
24277;SDS011;12394;42.692;23.314;2023-07-24T03:39:44;15.07;;;9.57;;
24277;SDS011;12394;42.692;23.314;2023-07-24T03:42:10;11.87;;;8.60;;
24277;SDS011;12394;42.692;23.314;2023-07-24T03:44:39;10.37;;;8.63;;
24277;SDS011;12394;42.692;23.314;2023-07-24T03:47:06;14.20;;;9.23;;
24277;SDS011;12394;42.692;23.314;2023-07-24T03:49:31;10.63;;;8.03;;
24277;SDS011;12394;42.692;23.314;2023-07-24T03:51:57;14.13;;;8.30;;
24277;SDS011;12394;42.692;23.314;2023-07-24T03:54:22;14.23;;;9.90;;
24277;SDS011;12394;42.692;23.314;2023-07-24T03:56:48;16.70;;;8.93;;
24277;SDS011;12394;42.692;23.314;2023-07-24T03:59:13;16.53;;;9.73;;
24277;SDS011;12394;42.692;23.314;2023-07-24T04:01:38;20.87;;;10.17;;
24277;SDS011;12394;42.692;23.314;2023-07-24T04:04:04;13.80;;;10.10;;
24277;SDS011;12394;42.692;23.314;2023-07-24T04:06:29;12.87;;;10.43;;
24277;SDS011;12394;42.692;23.314;2023-07-24T04:08:55;15.43;;;10.93;;
24277;SDS011;12394;42.692;23.314;2023-07-24T04:11:20;16.70;;;10.90;;
24277;SDS011;12394;42.692;23.314;2023-07-24T04:13:46;18.37;;;11.70;;
24277;SDS011;12394;42.692;23.314;2023-07-24T04:16:11;14.90;;;10.50;;
24277;SDS011;12394;42.692;23.314;2023-07-24T04:18:36;14.07;;;10.40;;
24277;SDS011;12394;42.692;23.314;2023-07-24T04:21:02;17.97;;;9.87;;
24277;SDS011;12394;42.692;23.314;2023-07-24T04:23:27;17.43;;;11.93;;
24277;SDS011;12394;42.692;23.314;2023-07-24T04:25:52;22.10;;;11.77;;
24277;SDS011;12394;42.692;23.314;2023-07-24T04:28:18;20.00;;;12.10;;
24277;SDS011;12394;42.692;23.314;2023-07-24T04:30:43;20.53;;;11.80;;
24277;SDS011;12394;42.692;23.314;2023-07-24T04:33:09;16.67;;;11.87;;
24277;SDS011;12394;42.692;23.314;2023-07-24T04:35:34;15.50;;;11.07;;
24277;SDS011;12394;42.692;23.314;2023-07-24T04:37:59;16.20;;;11.90;;
24277;SDS011;12394;42.692;23.314;2023-07-24T04:40:25;20.17;;;11.37;;
24277;SDS011;12394;42.692;23.314;2023-07-24T04:42:50;21.47;;;13.23;;
24277;SDS011;12394;42.692;23.314;2023-07-24T04:45:16;18.13;;;11.97;;
24277;SDS011;12394;42.692;23.314;2023-07-24T04:47:41;19.93;;;11.87;;
24277;SDS011;12394;42.692;23.314;2023-07-24T04:50:07;18.70;;;12.60;;
24277;SDS011;12394;42.692;23.314;2023-07-24T04:52:32;18.53;;;11.70;;
24277;SDS011;12394;42.692;23.314;2023-07-24T04:54:58;17.83;;;12.07;;
24277;SDS011;12394;42.692;23.314;2023-07-24T04:57:23;18.73;;;12.53;;
24277;SDS011;12394;42.692;23.314;2023-07-24T04:59:49;18.43;;;12.37;;
24277;SDS011;12394;42.692;23.314;2023-07-24T05:02:14;13.97;;;11.20;;
24277;SDS011;12394;42.692;23.314;2023-07-24T05:04:39;17.93;;;11.07;;
24277;SDS011;12394;42.692;23.314;2023-07-24T05:07:06;19.13;;;12.13;;
24277;SDS011;12394;42.692;23.314;2023-07-24T05:09:32;16.50;;;11.43;;
24277;SDS011;12394;42.692;23.314;2023-07-24T05:11:57;17.37;;;12.40;;
24277;SDS011;12394;42.692;23.314;2023-07-24T05:14:22;19.87;;;14.13;;
24277;SDS011;12394;42.692;23.314;2023-07-24T05:16:48;15.33;;;11.67;;
24277;SDS011;12394;42.692;23.314;2023-07-24T05:19:13;19.63;;;12.33;;
24277;SDS011;12394;42.692;23.314;2023-07-24T05:21:39;15.20;;;11.40;;
24277;SDS011;12394;42.692;23.314;2023-07-24T05:24:04;16.13;;;12.17;;
24277;SDS011;12394;42.692;23.314;2023-07-24T05:26:29;23.43;;;16.93;;
24277;SDS011;12394;42.692;23.314;2023-07-24T05:28:55;19.27;;;14.17;;
24277;SDS011;12394;42.692;23.314;2023-07-24T05:31:20;24.47;;;16.27;;
24277;SDS011;12394;42.692;23.314;2023-07-24T05:33:46;25.10;;;17.90;;
24277;SDS011;12394;42.692;23.314;2023-07-24T05:36:11;25.57;;;17.43;;
24277;SDS011;12394;42.692;23.314;2023-07-24T05:38:36;21.57;;;14.13;;
24277;SDS011;12394;42.692;23.314;2023-07-24T05:41:02;17.27;;;12.47;;
24277;SDS011;12394;42.692;23.314;2023-07-24T05:43:29;25.40;;;16.27;;
24277;SDS011;12394;42.692;23.314;2023-07-24T05:45:56;25.07;;;18.57;;
24277;SDS011;12394;42.692;23.314;2023-07-24T05:48:22;18.13;;;14.10;;
24277;SDS011;12394;42.692;23.314;2023-07-24T05:50:49;17.77;;;12.03;;
24277;SDS011;12394;42.692;23.314;2023-07-24T05:53:15;28.33;;;21.73;;
24277;SDS011;12394;42.692;23.314;2023-07-24T05:55:41;16.70;;;11.63;;
24277;SDS011;12394;42.692;23.314;2023-07-24T05:58:07;15.47;;;11.70;;
24277;SDS011;12394;42.692;23.314;2023-07-24T06:00:33;20.63;;;13.47;;
24277;SDS011;12394;42.692;23.314;2023-07-24T06:02:59;21.47;;;17.10;;
24277;SDS011;12394;42.692;23.314;2023-07-24T06:05:24;22.63;;;14.90;;
24277;SDS011;12394;42.692;23.314;2023-07-24T06:07:49;19.53;;;13.00;;
24277;SDS011;12394;42.692;23.314;2023-07-24T06:10:15;17.27;;;12.97;;
24277;SDS011;12394;42.692;23.314;2023-07-24T06:12:40;26.60;;;17.13;;
24277;SDS011;12394;42.692;23.314;2023-07-24T06:15:06;17.50;;;12.73;;
24277;SDS011;12394;42.692;23.314;2023-07-24T06:17:32;22.80;;;12.43;;
24277;SDS011;12394;42.692;23.314;2023-07-24T06:19:57;18.20;;;12.67;;
24277;SDS011;12394;42.692;23.314;2023-07-24T06:22:23;14.83;;;11.40;;
24277;SDS011;12394;42.692;23.314;2023-07-24T06:24:48;19.87;;;12.93;;
24277;SDS011;12394;42.692;23.314;2023-07-24T06:27:14;18.23;;;12.23;;
24277;SDS011;12394;42.692;23.314;2023-07-24T06:29:40;22.57;;;14.40;;
24277;SDS011;12394;42.692;23.314;2023-07-24T06:32:06;18.63;;;12.27;;
24277;SDS011;12394;42.692;23.314;2023-07-24T06:34:32;18.07;;;12.83;;
24277;SDS011;12394;42.692;23.314;2023-07-24T06:36:58;16.47;;;11.47;;
24277;SDS011;12394;42.692;23.314;2023-07-24T06:39:23;17.97;;;11.43;;
24277;SDS011;12394;42.692;23.314;2023-07-24T06:41:48;14.77;;;10.50;;
24277;SDS011;12394;42.692;23.314;2023-07-24T06:44:17;18.57;;;11.70;;
24277;SDS011;12394;42.692;23.314;2023-07-24T06:46:42;20.43;;;13.53;;
24277;SDS011;12394;42.692;23.314;2023-07-24T06:49:07;24.20;;;13.30;;
24277;SDS011;12394;42.692;23.314;2023-07-24T06:51:33;18.70;;;10.77;;
24277;SDS011;12394;42.692;23.314;2023-07-24T06:53:58;17.00;;;11.30;;
24277;SDS011;12394;42.692;23.314;2023-07-24T06:56:24;23.43;;;14.67;;
24277;SDS011;12394;42.692;23.314;2023-07-24T06:58:49;14.80;;;11.20;;
24277;SDS011;12394;42.692;23.314;2023-07-24T07:01:15;20.93;;;11.53;;
24277;SDS011;12394;42.692;23.314;2023-07-24T07:03:40;15.60;;;11.73;;
24277;SDS011;12394;42.692;23.314;2023-07-24T07:06:05;22.53;;;13.83;;
24277;SDS011;12394;42.692;23.314;2023-07-24T07:08:31;17.47;;;12.60;;
24277;SDS011;12394;42.692;23.314;2023-07-24T07:10:57;14.00;;;10.80;;
24277;SDS011;12394;42.692;23.314;2023-07-24T07:13:24;28.90;;;14.13;;
24277;SDS011;12394;42.692;23.314;2023-07-24T07:15:49;28.13;;;14.40;;
24277;SDS011;12394;42.692;23.314;2023-07-24T07:18:16;20.77;;;11.83;;
24277;SDS011;12394;42.692;23.314;2023-07-24T07:20:45;18.13;;;11.77;;
24277;SDS011;12394;42.692;23.314;2023-07-24T07:23:11;20.47;;;12.23;;
24277;SDS011;12394;42.692;23.314;2023-07-24T07:25:37;26.20;;;13.20;;
24277;SDS011;12394;42.692;23.314;2023-07-24T07:28:02;16.37;;;10.67;;
24277;SDS011;12394;42.692;23.314;2023-07-24T07:30:28;18.50;;;11.33;;
24277;SDS011;12394;42.692;23.314;2023-07-24T07:32:53;19.90;;;10.50;;
24277;SDS011;12394;42.692;23.314;2023-07-24T07:35:18;20.23;;;12.57;;
24277;SDS011;12394;42.692;23.314;2023-07-24T07:37:44;16.37;;;11.77;;
24277;SDS011;12394;42.692;23.314;2023-07-24T07:40:09;17.13;;;11.07;;
24277;SDS011;12394;42.692;23.314;2023-07-24T07:42:35;20.00;;;11.67;;
24277;SDS011;12394;42.692;23.314;2023-07-24T07:45:01;20.73;;;11.90;;
24277;SDS011;12394;42.692;23.314;2023-07-24T07:47:26;25.17;;;12.30;;
24277;SDS011;12394;42.692;23.314;2023-07-24T07:49:51;18.33;;;11.67;;
24277;SDS011;12394;42.692;23.314;2023-07-24T07:52:17;16.20;;;11.17;;
24277;SDS011;12394;42.692;23.314;2023-07-24T07:54:48;14.83;;;10.37;;
24277;SDS011;12394;42.692;23.314;2023-07-24T07:57:14;17.43;;;11.10;;
24277;SDS011;12394;42.692;23.314;2023-07-24T07:59:40;16.10;;;11.10;;
24277;SDS011;12394;42.692;23.314;2023-07-24T08:02:06;19.53;;;11.57;;
24277;SDS011;12394;42.692;23.314;2023-07-24T08:04:31;20.37;;;11.37;;
24277;SDS011;12394;42.692;23.314;2023-07-24T08:06:57;18.03;;;13.83;;
24277;SDS011;12394;42.692;23.314;2023-07-24T08:09:23;18.67;;;12.70;;
24277;SDS011;12394;42.692;23.314;2023-07-24T08:11:49;17.57;;;11.83;;
24277;SDS011;12394;42.692;23.314;2023-07-24T08:14:16;19.67;;;11.83;;
24277;SDS011;12394;42.692;23.314;2023-07-24T08:16:41;18.63;;;11.97;;
24277;SDS011;12394;42.692;23.314;2023-07-24T08:19:07;16.87;;;13.20;;
24277;SDS011;12394;42.692;23.314;2023-07-24T08:21:32;14.93;;;11.30;;
24277;SDS011;12394;42.692;23.314;2023-07-24T08:23:58;21.03;;;13.67;;
24277;SDS011;12394;42.692;23.314;2023-07-24T08:26:25;14.05;;;11.65;;
24277;SDS011;12394;42.692;23.314;2023-07-24T08:28:51;18.38;;;12.43;;
24277;SDS011;12394;42.692;23.314;2023-07-24T08:31:17;16.42;;;11.00;;
24277;SDS011;12394;42.692;23.314;2023-07-24T08:33:43;21.77;;;12.35;;
24277;SDS011;12394;42.692;23.314;2023-07-24T08:36:08;17.25;;;13.85;;
24277;SDS011;12394;42.692;23.314;2023-07-24T08:38:34;18.05;;;12.93;;
24277;SDS011;12394;42.692;23.314;2023-07-24T08:41:03;15.50;;;12.27;;
24277;SDS011;12394;42.692;23.314;2023-07-24T08:43:31;16.90;;;12.70;;
24277;SDS011;12394;42.692;23.314;2023-07-24T08:45:58;14.60;;;11.98;;
24277;SDS011;12394;42.692;23.314;2023-07-24T08:48:35;21.50;;;12.95;;
24277;SDS011;12394;42.692;23.314;2023-07-24T08:51:03;18.40;;;13.13;;
24277;SDS011;12394;42.692;23.314;2023-07-24T08:53:36;18.10;;;11.85;;
24277;SDS011;12394;42.692;23.314;2023-07-24T08:56:03;21.98;;;12.57;;
24277;SDS011;12394;42.692;23.314;2023-07-24T08:58:30;16.02;;;11.43;;
24277;SDS011;12394;42.692;23.314;2023-07-24T09:00:56;18.13;;;12.75;;
24277;SDS011;12394;42.692;23.314;2023-07-24T09:03:23;25.17;;;12.50;;
24277;SDS011;12394;42.692;23.314;2023-07-24T09:05:48;15.43;;;11.93;;
24277;SDS011;12394;42.692;23.314;2023-07-24T09:08:13;17.15;;;12.48;;
24277;SDS011;12394;42.692;23.314;2023-07-24T09:10:39;18.75;;;12.23;;
24277;SDS011;12394;42.692;23.314;2023-07-24T09:13:05;19.83;;;13.50;;
24277;SDS011;12394;42.692;23.314;2023-07-24T09:15:41;15.05;;;12.70;;
24277;SDS011;12394;42.692;23.314;2023-07-24T09:18:08;15.43;;;12.02;;
24277;SDS011;12394;42.692;23.314;2023-07-24T09:20:38;14.50;;;12.43;;
24277;SDS011;12394;42.692;23.314;2023-07-24T09:23:06;16.85;;;12.13;;
24277;SDS011;12394;42.692;23.314;2023-07-24T09:25:33;17.00;;;12.63;;
24277;SDS011;12394;42.692;23.314;2023-07-24T09:28:00;19.38;;;12.95;;
24277;SDS011;12394;42.692;23.314;2023-07-24T09:30:26;21.33;;;14.40;;
24277;SDS011;12394;42.692;23.314;2023-07-24T09:32:54;19.70;;;14.48;;
24277;SDS011;12394;42.692;23.314;2023-07-24T09:35:20;17.52;;;13.27;;
24277;SDS011;12394;42.692;23.314;2023-07-24T09:38:01;20.92;;;14.20;;
24277;SDS011;12394;42.692;23.314;2023-07-24T09:40:38;21.90;;;13.15;;
24277;SDS011;12394;42.692;23.314;2023-07-24T09:43:28;17.52;;;12.57;;
24277;SDS011;12394;42.692;23.314;2023-07-24T09:45:54;15.30;;;11.68;;
24277;SDS011;12394;42.692;23.314;2023-07-24T09:48:20;14.80;;;12.43;;
24277;SDS011;12394;42.692;23.314;2023-07-24T09:50:48;16.80;;;13.70;;
24277;SDS011;12394;42.692;23.314;2023-07-24T09:53:20;16.23;;;13.45;;
24277;SDS011;12394;42.692;23.314;2023-07-24T09:58:23;18.67;;;12.85;;
24277;SDS011;12394;42.692;23.314;2023-07-24T10:00:49;14.85;;;12.85;;
24277;SDS011;12394;42.692;23.314;2023-07-24T10:03:16;20.25;;;13.13;;
24277;SDS011;12394;42.692;23.314;2023-07-24T10:05:43;17.10;;;12.57;;
24277;SDS011;12394;42.692;23.314;2023-07-24T10:08:14;17.83;;;14.07;;
24277;SDS011;12394;42.692;23.314;2023-07-24T10:10:40;15.38;;;12.95;;
24277;SDS011;12394;42.692;23.314;2023-07-24T10:13:06;20.02;;;12.80;;
24277;SDS011;12394;42.692;23.314;2023-07-24T10:15:35;17.85;;;12.50;;
24277;SDS011;12394;42.692;23.314;2023-07-24T10:18:04;19.23;;;11.13;;
24277;SDS011;12394;42.692;23.314;2023-07-24T10:20:38;19.17;;;11.60;;
24277;SDS011;12394;42.692;23.314;2023-07-24T10:23:06;22.23;;;13.23;;
24277;SDS011;12394;42.692;23.314;2023-07-24T10:25:33;22.10;;;12.80;;
24277;SDS011;12394;42.692;23.314;2023-07-24T10:28:07;19.75;;;12.70;;
24277;SDS011;12394;42.692;23.314;2023-07-24T10:30:39;23.33;;;13.32;;
24277;SDS011;12394;42.692;23.314;2023-07-24T10:35:40;18.77;;;11.70;;
24277;SDS011;12394;42.692;23.314;2023-07-24T10:38:13;18.77;;;12.52;;
24277;SDS011;12394;42.692;23.314;2023-07-24T10:41:01;18.13;;;12.05;;
24277;SDS011;12394;42.692;23.314;2023-07-24T10:43:28;18.33;;;12.35;;
24277;SDS011;12394;42.692;23.314;2023-07-24T10:45:54;16.23;;;12.02;;
24277;SDS011;12394;42.692;23.314;2023-07-24T10:48:21;18.95;;;11.55;;
24277;SDS011;12394;42.692;23.314;2023-07-24T10:50:50;21.98;;;13.00;;
24277;SDS011;12394;42.692;23.314;2023-07-24T10:53:17;18.35;;;12.00;;
24277;SDS011;12394;42.692;23.314;2023-07-24T10:55:44;21.92;;;11.90;;
24277;SDS011;12394;42.692;23.314;2023-07-24T10:58:14;20.85;;;11.30;;
24277;SDS011;12394;42.692;23.314;2023-07-24T11:00:40;20.33;;;10.90;;
24277;SDS011;12394;42.692;23.314;2023-07-24T11:03:08;17.02;;;9.13;;
24277;SDS011;12394;42.692;23.314;2023-07-24T11:05:40;18.70;;;9.65;;
24277;SDS011;12394;42.692;23.314;2023-07-24T11:08:10;17.00;;;10.00;;
24277;SDS011;12394;42.692;23.314;2023-07-24T11:10:39;14.73;;;9.52;;
24277;SDS011;12394;42.692;23.314;2023-07-24T11:13:12;18.52;;;9.57;;
24277;SDS011;12394;42.692;23.314;2023-07-24T11:15:38;14.47;;;9.73;;
24277;SDS011;12394;42.692;23.314;2023-07-24T11:18:04;17.25;;;9.30;;
24277;SDS011;12394;42.692;23.314;2023-07-24T11:20:33;19.40;;;10.10;;
24277;SDS011;12394;42.692;23.314;2023-07-24T11:23:02;12.60;;;9.00;;
24277;SDS011;12394;42.692;23.314;2023-07-24T11:25:28;13.63;;;9.33;;
24277;SDS011;12394;42.692;23.314;2023-07-24T11:27:53;15.40;;;9.47;;
24277;SDS011;12394;42.692;23.314;2023-07-24T11:30:19;14.00;;;9.93;;
24277;SDS011;12394;42.692;23.314;2023-07-24T11:32:46;17.20;;;9.97;;
24277;SDS011;12394;42.692;23.314;2023-07-24T11:35:13;19.27;;;10.17;;
24277;SDS011;12394;42.692;23.314;2023-07-24T11:37:39;19.27;;;9.57;;
24277;SDS011;12394;42.692;23.314;2023-07-24T11:40:05;17.07;;;10.70;;
24277;SDS011;12394;42.692;23.314;2023-07-24T11:42:40;15.70;;;9.63;;
24277;SDS011;12394;42.692;23.314;2023-07-24T11:45:08;14.30;;;10.53;;
24277;SDS011;12394;42.692;23.314;2023-07-24T11:47:47;16.40;;;10.27;;
24277;SDS011;12394;42.692;23.314;2023-07-24T11:50:13;14.70;;;10.13;;
24277;SDS011;12394;42.692;23.314;2023-07-24T11:52:40;18.03;;;10.43;;
24277;SDS011;12394;42.692;23.314;2023-07-24T11:55:08;14.13;;;10.23;;
24277;SDS011;12394;42.692;23.314;2023-07-24T11:57:35;16.37;;;9.97;;
24277;SDS011;12394;42.692;23.314;2023-07-24T12:00:00;12.80;;;9.53;;
24277;SDS011;12394;42.692;23.314;2023-07-24T12:02:26;19.73;;;10.00;;
24277;SDS011;12394;42.692;23.314;2023-07-24T12:05:01;18.73;;;9.93;;
24277;SDS011;12394;42.692;23.314;2023-07-24T12:07:31;17.13;;;9.80;;
24277;SDS011;12394;42.692;23.314;2023-07-24T12:09:57;15.90;;;9.67;;
24277;SDS011;12394;42.692;23.314;2023-07-24T12:12:24;24.07;;;10.73;;
24277;SDS011;12394;42.692;23.314;2023-07-24T12:14:49;19.27;;;9.67;;
24277;SDS011;12394;42.692;23.314;2023-07-24T12:17:18;17.10;;;10.47;;
24277;SDS011;12394;42.692;23.314;2023-07-24T12:19:44;13.37;;;9.93;;
24277;SDS011;12394;42.692;23.314;2023-07-24T12:22:29;25.83;;;11.47;;
24277;SDS011;12394;42.692;23.314;2023-07-24T12:24:55;15.07;;;10.67;;
24277;SDS011;12394;42.692;23.314;2023-07-24T12:27:21;14.33;;;9.33;;
24277;SDS011;12394;42.692;23.314;2023-07-24T12:29:46;17.00;;;10.10;;
24277;SDS011;12394;42.692;23.314;2023-07-24T12:32:11;19.97;;;10.20;;
24277;SDS011;12394;42.692;23.314;2023-07-24T12:34:37;17.03;;;9.43;;
24277;SDS011;12394;42.692;23.314;2023-07-24T12:37:02;16.67;;;10.20;;
24277;SDS011;12394;42.692;23.314;2023-07-24T12:39:28;13.33;;;9.37;;
24277;SDS011;12394;42.692;23.314;2023-07-24T12:41:53;16.70;;;10.67;;
24277;SDS011;12394;42.692;23.314;2023-07-24T12:44:19;17.10;;;10.03;;
24277;SDS011;12394;42.692;23.314;2023-07-24T12:46:44;11.23;;;9.17;;
24277;SDS011;12394;42.692;23.314;2023-07-24T12:49:09;15.73;;;9.63;;
24277;SDS011;12394;42.692;23.314;2023-07-24T12:51:53;17.70;;;10.97;;
24277;SDS011;12394;42.692;23.314;2023-07-24T12:54:18;17.87;;;10.60;;
24277;SDS011;12394;42.692;23.314;2023-07-24T12:56:45;16.03;;;11.00;;
24277;SDS011;12394;42.692;23.314;2023-07-24T12:59:11;15.97;;;10.80;;
24277;SDS011;12394;42.692;23.314;2023-07-24T13:01:36;13.53;;;9.87;;
24277;SDS011;12394;42.692;23.314;2023-07-24T13:04:02;13.93;;;8.97;;
24277;SDS011;12394;42.692;23.314;2023-07-24T13:06:27;16.33;;;9.80;;
24277;SDS011;12394;42.692;23.314;2023-07-24T13:08:53;14.97;;;9.30;;
24277;SDS011;12394;42.692;23.314;2023-07-24T13:11:18;14.47;;;10.40;;
24277;SDS011;12394;42.692;23.314;2023-07-24T13:13:43;20.90;;;10.47;;
24277;SDS011;12394;42.692;23.314;2023-07-24T13:16:09;13.33;;;9.50;;
24277;SDS011;12394;42.692;23.314;2023-07-24T13:18:34;13.03;;;9.87;;
24277;SDS011;12394;42.692;23.314;2023-07-24T13:21:00;14.73;;;9.70;;
24277;SDS011;12394;42.692;23.314;2023-07-24T13:23:25;15.87;;;10.60;;
24277;SDS011;12394;42.692;23.314;2023-07-24T13:25:51;15.67;;;10.73;;
24277;SDS011;12394;42.692;23.314;2023-07-24T13:28:17;15.53;;;10.40;;
24277;SDS011;12394;42.692;23.314;2023-07-24T13:30:43;14.03;;;10.07;;
24277;SDS011;12394;42.692;23.314;2023-07-24T13:33:09;16.83;;;10.33;;
24277;SDS011;12394;42.692;23.314;2023-07-24T13:35:34;18.77;;;11.00;;
24277;SDS011;12394;42.692;23.314;2023-07-24T13:38:00;15.13;;;10.37;;
24277;SDS011;12394;42.692;23.314;2023-07-24T13:40:26;17.80;;;12.50;;
24277;SDS011;12394;42.692;23.314;2023-07-24T13:42:51;16.33;;;10.53;;
24277;SDS011;12394;42.692;23.314;2023-07-24T13:45:17;16.60;;;10.67;;
24277;SDS011;12394;42.692;23.314;2023-07-24T13:47:42;13.77;;;10.00;;
24277;SDS011;12394;42.692;23.314;2023-07-24T13:50:08;13.10;;;10.07;;
24277;SDS011;12394;42.692;23.314;2023-07-24T13:52:33;12.40;;;10.10;;
24277;SDS011;12394;42.692;23.314;2023-07-24T13:54:59;18.57;;;11.00;;
24277;SDS011;12394;42.692;23.314;2023-07-24T13:57:25;17.13;;;10.97;;
24277;SDS011;12394;42.692;23.314;2023-07-24T13:59:51;15.37;;;11.47;;
24277;SDS011;12394;42.692;23.314;2023-07-24T14:02:16;17.47;;;10.40;;
24277;SDS011;12394;42.692;23.314;2023-07-24T14:04:42;23.37;;;11.87;;
24277;SDS011;12394;42.692;23.314;2023-07-24T14:07:07;15.37;;;10.40;;
24277;SDS011;12394;42.692;23.314;2023-07-24T14:09:32;17.10;;;11.60;;
24277;SDS011;12394;42.692;23.314;2023-07-24T14:11:59;19.13;;;10.80;;
24277;SDS011;12394;42.692;23.314;2023-07-24T14:14:25;17.00;;;10.97;;